This is the latest recevied weather packets stored in our database for station/object N4OGP-WX. If no packets are shown the sender has not sent any weather packets the latest 10 day(s).
| Time | Temp. | Humidity | Pressure | Rain* | Wind** | Luminosity | Snow |
|---|---|---|---|---|---|---|---|
| 1777599890 | 23.33° C | 77% | 1009.5 hPa | 0 mm | - | - | - |
| 1777599830 | 23.89° C | 42% | 1020.4 hPa | 0 mm | - | - | - |
| 1777599740 | 23.89° C | 42% | 1020.4 hPa | 0 mm | - | - | - |
| 1777599650 | 23.33° C | 78% | 1009.5 hPa | 0 mm | - | - | - |
| 1777599590 | 23.33° C | 78% | 1009.4 hPa | 0 mm | - | - | - |
| 1777599501 | 23.33° C | 78% | 1009.4 hPa | 0 mm | - | - | - |
| 1777599410 | 23.33° C | 78% | 1009.4 hPa | 0 mm | - | - | - |
| 1777599350 | 23.33° C | 78% | 1009.4 hPa | 0 mm | - | - | - |
| 1777599261 | 23.89° C | 42% | 1020.4 hPa | 0 mm | - | - | - |
| 1777599200 | 23.33° C | 78% | 1009.4 hPa | 0 mm | - | - | - |
| 1777599140 | 23.33° C | 77% | 1009.4 hPa | 0 mm | - | - | - |
| 1777599050 | 23.89° C | 42% | 1020.4 hPa | 0 mm | - | - | - |
| 1777598990 | 23.33° C | 78% | 1009.5 hPa | 0 mm | - | - | - |
| 1777598901 | 23.89° C | 42% | 1020.4 hPa | 0 mm | - | - | - |
| 1777598840 | 23.33° C | 77% | 1009.5 hPa | 0 mm | - | - | - |
| 1777598780 | 23.89° C | 42% | 1020.4 hPa | 0 mm | - | - | - |
| 1777598720 | 23.33° C | 77% | 1009.5 hPa | 0 mm | - | - | - |
| 1777598631 | 23.33° C | 77% | 1009.4 hPa | 0 mm | - | - | - |
| 1777598571 | 23.89° C | 42% | 1020.4 hPa | 0 mm | - | - | - |
| 1777598510 | 23.33° C | 77% | 1009.4 hPa | 0 mm | - | - | - |
| 1777598451 | 23.33° C | 77% | 1009.4 hPa | 0 mm | - | - | - |
| 1777598391 | 23.89° C | 77% | 1009.4 hPa | 0 mm | - | - | - |
| 1777598331 | 23.89° C | 42% | 1020.4 hPa | 0 mm | - | - | - |
| 1777598240 | 23.89° C | 77% | 1009.5 hPa | 0 mm | - | - | - |
| 1777598181 | 23.89° C | 76% | 1009.5 hPa | 0 mm | - | - | - |
* Rain latest hour (hover to see other rain measurements)
** Current wind speed in m/s (hover to see current wind gust speed)